Time;durP1;ratioP1;P1;durP2;ratioP2;P2;SDS_P1;SDS_P2;PMS_P1;PMS_P2;Temp;Humidity;BMP_temperature;BMP_pressure;BME280_temperature;BME280_humidity;BME280_pressure;Samples;Min_cycle;Max_cycle;Signal;HPM_P1;HPM_P2
2021/12/30 00:00:12;;;;;;;31.80;18.80;;;;;;;-1.05;57.92;100628.83;1753101;80;21161;-62
2021/12/30 00:02:41;;;;;;;35.40;19.02;;;;;;;-1.10;57.90;100639.27;1744352;80;21004;-62
2021/12/30 00:05:08;;;;;;;28.20;18.00;;;;;;;-1.11;57.86;100641.44;1746083;80;21038;-61
2021/12/30 00:07:36;;;;;;;28.67;18.50;;;;;;;-1.16;58.05;100639.01;1752967;80;21019;-61
2021/12/30 00:10:05;;;;;;;29.90;18.57;;;;;;;-1.18;58.08;100638.63;1765210;80;21039;-62
2021/12/30 00:12:33;;;;;;;28.55;18.42;;;;;;;-1.16;58.21;100640.30;1750411;80;22460;-62
2021/12/30 00:15:00;;;;;;;30.02;18.23;;;;;;;-1.14;58.29;100636.39;1751463;80;21109;-62
2021/12/30 00:17:26;;;;;;;35.55;19.42;;;;;;;-1.08;58.32;100637.94;1728087;80;21047;-62
2021/12/30 00:19:52;;;;;;;26.37;17.95;;;;;;;-1.05;58.22;100633.53;1749907;80;21062;-61
2021/12/30 00:22:19;;;;;;;33.00;19.05;;;;;;;-1.02;58.17;100632.16;1747674;80;21067;-62
2021/12/30 00:24:46;;;;;;;32.40;19.20;;;;;;;-0.96;57.88;100629.84;1744641;80;21531;-61
2021/12/30 00:27:12;;;;;;;26.33;17.02;;;;;;;-0.96;57.88;100629.84;1700504;82;21204;-61
2021/12/30 00:29:39;;;;;;;27.85;17.12;;;;;;;-0.96;57.52;100630.70;1689772;83;21791;-61
2021/12/30 00:32:06;;;;;;;28.77;17.27;;;;;;;-0.96;57.52;100630.70;1690466;83;21083;-61
2021/12/30 00:34:32;;;;;;;28.92;16.65;;;;;;;-0.92;57.78;100640.92;1696374;83;21134;-62
2021/12/30 00:36:59;;;;;;;34.23;19.45;;;;;;;-0.92;57.49;100647.38;1676566;82;21111;-62
2021/12/30 00:39:25;;;;;;;33.85;19.77;;;;;;;-0.96;57.48;100649.21;1692141;82;21374;-62
2021/12/30 00:41:51;;;;;;;29.85;18.52;;;;;;;-1.05;57.81;100647.73;1697083;82;20983;-62
2021/12/30 00:44:20;;;;;;;29.00;18.12;;;;;;;-1.05;57.81;100647.73;1692977;84;21001;-62
2021/12/30 00:46:46;;;;;;;28.38;17.02;;;;;;;-1.05;57.75;100648.20;1691380;83;21297;-60
2021/12/30 00:49:13;;;;;;;37.30;19.95;;;;;;;-1.04;57.69;100641.70;1667512;84;21016;-60
2021/12/30 00:51:40;;;;;;;32.50;17.05;;;;;;;-1.10;57.65;100636.69;1671933;84;21516;-60
2021/12/30 00:54:06;;;;;;;30.92;17.32;;;;;;;-1.06;57.83;100637.45;1667820;84;21067;-60
2021/12/30 00:56:32;;;;;;;27.77;17.67;;;;;;;-1.05;57.89;100636.12;1664730;84;21028;-61
2021/12/30 00:58:59;;;;;;;30.27;17.50;;;;;;;-1.03;58.00;100639.50;1689739;83;21116;-61
2021/12/30 01:01:25;;;;;;;25.10;17.32;;;;;;;-1.00;57.73;100638.13;1673565;83;21046;-60
2021/12/30 01:03:52;;;;;;;26.77;15.83;;;;;;;-0.99;57.79;100633.37;1693225;83;21095;-60
2021/12/30 01:06:18;;;;;;;26.82;15.70;;;;;;;-0.99;57.43;100644.16;1655513;84;22186;-60
2021/12/30 01:08:46;;;;;;;30.52;17.48;;;;;;;-1.01;57.63;100636.45;1695429;82;21048;-60
2021/12/30 01:11:13;;;;;;;30.02;17.35;;;;;;;-1.00;57.72;100630.83;1686114;84;21877;-60
2021/12/30 01:13:43;;;;;;;28.52;16.80;;;;;;;-0.94;57.56;100638.42;1693278;83;21080;-60
2021/12/30 01:16:22;;;;;;;28.00;17.62;;;;;;;-0.92;57.56;100631.89;1696209;83;21047;-61
2021/12/30 01:19:14;;;;;;;24.35;16.07;;;;;;;-0.93;57.54;100634.92;1666493;84;21520;-63
2021/12/30 01:21:32;;;;;;;25.57;17.00;;;;;;;-0.94;57.59;100636.67;1688546;83;21055;-60
2021/12/30 01:23:58;;;;;;;28.40;16.20;;;;;;;-0.94;57.45;100637.96;1674622;83;21055;-60
2021/12/30 01:26:25;;;;;;;26.50;14.98;;;;;;;-0.99;57.54;100638.54;1699137;83;21114;-60
2021/12/30 01:28:52;;;;;;;27.82;15.75;;;;;;;-1.04;57.64;100635.23;1696330;83;21076;-60
2021/12/30 01:31:19;;;;;;;23.85;16.05;;;;;;;-1.00;57.81;100635.54;1682236;83;21053;-60
2021/12/30 01:33:47;;;;;;;26.75;15.55;;;;;;;-1.00;57.81;100635.54;1678007;84;21084;-60
2021/12/30 01:36:14;;;;;;;28.52;17.05;;;;;;;-0.99;57.65;100634.66;1661708;83;21158;-60
2021/12/30 01:38:45;;;;;;;30.35;17.02;;;;;;;-0.98;57.43;100633.75;1693673;83;21079;-61
2021/12/30 01:41:12;;;;;;;27.40;17.10;;;;;;;-1.00;57.56;100630.83;1691291;83;21095;-61
2021/12/30 01:43:38;;;;;;;27.40;16.27;;;;;;;-1.00;57.78;100637.28;1708717;82;21019;-60
2021/12/30 01:46:08;;;;;;;28.85;18.02;;;;;;;-0.97;57.87;100643.66;1683151;83;21096;-60
2021/12/30 01:48:35;;;;;;;27.55;17.02;;;;;;;-0.94;57.95;100637.13;1699986;82;22390;-60
2021/12/30 01:51:03;;;;;;;25.25;15.58;;;;;;;-0.92;57.75;100640.50;1680058;83;21036;-60
2021/12/30 01:53:31;;;;;;;28.98;16.55;;;;;;;-0.96;57.70;100634.58;1698369;83;21067;-60
2021/12/30 01:55:57;;;;;;;27.20;16.37;;;;;;;-0.99;57.86;100640.28;1680681;83;21041;-60
2021/12/30 01:58:24;;;;;;;26.27;16.45;;;;;;;-0.99;57.89;100636.41;1695932;83;21090;-60
2021/12/30 02:00:50;;;;;;;29.18;15.78;;;;;;;-0.97;57.99;100639.33;1690207;83;21228;-60
2021/12/30 02:03:18;;;;;;;29.35;15.68;;;;;;;-0.94;57.82;100643.13;1667069;84;21155;-60
2021/12/30 02:05:44;;;;;;;27.52;16.95;;;;;;;-0.91;57.65;100645.22;1676380;83;21055;-60
2021/12/30 02:08:15;;;;;;;29.92;17.23;;;;;;;-0.95;57.65;100644.00;1692314;83;21088;-60
2021/12/30 02:10:44;;;;;;;27.42;16.82;;;;;;;-0.93;57.75;100649.12;1682499;83;21139;-60
2021/12/30 02:13:12;;;;;;;28.23;18.23;;;;;;;-0.92;57.71;100649.55;1695385;83;22419;-60
2021/12/30 02:15:38;;;;;;;32.67;17.32;;;;;;;-0.91;57.64;100650.38;1692218;83;21075;-61
2021/12/30 02:18:05;;;;;;;31.37;17.27;;;;;;;-0.92;57.85;100659.02;1686157;83;21107;-61
2021/12/30 02:20:55;;;;;;;30.15;17.92;;;;;;;-0.92;57.95;100665.05;1693335;83;21513;-61
2021/12/30 02:23:25;;;;;;;28.75;17.02;;;;;;;-0.88;58.24;100665.34;1688643;83;20993;-60
2021/12/30 02:25:56;;;;;;;29.57;16.95;;;;;;;-0.87;57.89;100669.64;1680150;83;21136;-60
2021/12/30 02:28:25;;;;;;;32.98;20.30;;;;;;;-0.91;57.91;100677.51;1680421;82;21855;-62
2021/12/30 02:30:54;;;;;;;33.18;18.23;;;;;;;-0.96;57.87;100677.20;1704561;82;21082;-61
2021/12/30 02:33:21;;;;;;;33.20;19.55;;;;;;;-0.99;57.90;100675.99;1689731;83;21512;-61
2021/12/30 02:35:48;;;;;;;33.28;19.87;;;;;;;-1.02;58.10;100669.61;1684036;83;21063;-61
2021/12/30 02:38:16;;;;;;;28.92;18.85;;;;;;;-1.04;58.33;100669.23;1718199;82;21227;-61
2021/12/30 02:43:55;;;;;;;31.75;18.05;;;;;;;-1.00;58.58;100665.24;1802240;78;22627;-61
2021/12/30 02:46:23;;;;;;;28.57;18.80;;;;;;;-0.97;58.59;100667.75;1766702;79;21586;-61
2021/12/30 02:48:52;;;;;;;27.60;16.90;;;;;;;-0.92;58.55;100669.34;1753418;81;21074;-61
2021/12/30 02:51:18;;;;;;;30.43;19.17;;;;;;;-0.90;58.43;100662.42;1769205;80;20940;-61
2021/12/30 02:53:45;;;;;;;28.40;18.35;;;;;;;-0.89;58.39;100675.72;1783051;78;21038;-60
2021/12/30 02:56:11;;;;;;;30.65;18.45;;;;;;;-0.92;58.05;100686.14;1752857;80;21049;-61
2021/12/30 02:58:37;;;;;;;33.42;16.97;;;;;;;-0.92;58.05;100686.14;1763274;80;21089;-61
2021/12/30 03:01:14;;;;;;;30.55;18.32;;;;;;;-0.95;58.15;100680.63;1779982;79;22152;-61
2021/12/30 03:03:42;;;;;;;29.92;17.35;;;;;;;-0.99;58.33;100679.03;1767659;79;21680;-61
2021/12/30 03:06:11;;;;;;;32.15;16.65;;;;;;;-1.03;58.46;100678.69;1742938;80;21042;-61
2021/12/30 03:08:38;;;;;;;30.27;17.23;;;;;;;-1.07;58.44;100680.52;1775705;80;21011;-61
2021/12/30 03:11:06;;;;;;;31.35;19.45;;;;;;;-1.14;58.51;100688.03;1761589;79;21046;-61
2021/12/30 03:13:34;;;;;;;33.35;17.73;;;;;;;-1.19;58.66;100688.60;1780178;78;21115;-61
2021/12/30 03:16:06;;;;;;;31.20;17.27;;;;;;;-1.17;58.58;100690.70;1753161;80;21050;-61
2021/12/30 03:18:35;;;;;;;25.30;15.45;;;;;;;-1.12;58.43;100696.58;1775337;80;21035;-61
2021/12/30 03:21:04;;;;;;;20.85;12.98;;;;;;;-1.12;58.43;100696.58;1763955;79;21019;-61
2021/12/30 03:23:30;;;;;;;23.65;14.63;;;;;;;-1.12;58.37;100700.45;1767800;80;21022;-61
2021/12/30 03:25:57;;;;;;;23.18;13.88;;;;;;;-1.12;58.24;100699.16;1770793;78;21098;-62
2021/12/30 03:28:24;;;;;;;25.88;15.20;;;;;;;-1.13;58.06;100714.24;1776331;79;21087;-62
2021/12/30 03:30:51;;;;;;;29.67;14.90;;;;;;;-1.15;58.01;100719.90;1761659;80;21042;-61
2021/12/30 03:33:20;;;;;;;25.85;15.85;;;;;;;-1.17;57.85;100723.81;1770832;80;21077;-61
2021/12/30 03:35:47;;;;;;;22.37;14.35;;;;;;;-1.24;57.96;100726.16;1759393;79;21062;-61
2021/12/30 03:38:13;;;;;;;28.17;16.27;;;;;;;-1.32;58.03;100725.05;1766145;80;21159;-61
2021/12/30 03:40:40;;;;;;;28.60;16.00;;;;;;;-1.31;58.26;100726.76;1773403;78;21081;-61
2021/12/30 03:43:07;;;;;;;32.50;17.00;;;;;;;-1.29;58.41;100724.14;1767325;80;21019;-61
2021/12/30 03:45:35;;;;;;;26.73;16.60;;;;;;;-1.24;58.41;100727.45;1755960;79;21552;-61
2021/12/30 03:48:01;;;;;;;25.72;15.95;;;;;;;-1.23;58.38;100727.00;1768287;80;21050;-61
2021/12/30 03:50:29;;;;;;;25.92;14.65;;;;;;;-1.23;58.38;100727.00;1766021;79;21096;-61
2021/12/30 03:52:59;;;;;;;25.25;14.93;;;;;;;-1.23;58.45;100730.87;1762708;79;21062;-61
2021/12/30 03:55:29;;;;;;;22.50;14.63;;;;;;;-1.23;58.45;100730.87;1763513;79;21046;-61
2021/12/30 03:57:55;;;;;;;28.02;15.88;;;;;;;-1.27;58.27;100733.14;1771786;80;21058;-61
2021/12/30 04:00:23;;;;;;;25.90;14.30;;;;;;;-1.27;58.27;100733.14;1766184;80;21027;-61
2021/12/30 04:02:49;;;;;;;24.80;15.15;;;;;;;-1.20;58.54;100735.95;1770693;80;21144;-61
2021/12/30 04:05:16;;;;;;;26.73;14.55;;;;;;;-1.20;58.54;100735.95;1770471;79;20990;-61
2021/12/30 04:07:42;;;;;;;25.55;14.47;;;;;;;-1.20;58.61;100739.38;1759394;79;21011;-61
2021/12/30 04:10:09;;;;;;;24.47;13.45;;;;;;;-1.18;58.49;100744.09;1741032;80;21058;-62
2021/12/30 04:12:36;;;;;;;22.95;14.63;;;;;;;-1.16;58.56;100745.30;1746995;80;21047;-62
2021/12/30 04:15:05;;;;;;;24.57;14.73;;;;;;;-1.19;58.57;100739.80;1754444;80;21173;-61
2021/12/30 04:17:32;;;;;;;25.72;15.13;;;;;;;-1.19;58.57;100746.25;1747846;80;21027;-62
2021/12/30 04:19:59;;;;;;;22.75;15.08;;;;;;;-1.20;58.75;100738.55;1755809;80;21034;-62
2021/12/30 04:22:26;;;;;;;27.17;13.38;;;;;;;-1.15;58.79;100745.73;1755274;80;21038;-62
2021/12/30 04:24:52;;;;;;;21.82;12.73;;;;;;;-1.11;58.60;100749.91;1768064;79;21117;-62
2021/12/30 04:27:19;;;;;;;23.83;13.35;;;;;;;-1.18;58.39;100759.58;1765771;79;21199;-61
2021/12/30 04:29:45;;;;;;;24.02;12.37;;;;;;;-1.18;58.39;100759.58;1769560;80;21058;-62
2021/12/30 04:32:12;;;;;;;25.48;13.35;;;;;;;-1.21;58.54;100760.08;1758914;80;21030;-62
2021/12/30 04:34:38;;;;;;;24.43;14.30;;;;;;;-1.20;58.62;100773.41;1751306;80;21089;-62
2021/12/30 04:37:05;;;;;;;21.57;12.60;;;;;;;-1.21;58.74;100762.66;1754309;81;21086;-61
2021/12/30 04:39:31;;;;;;;23.73;12.68;;;;;;;-1.21;58.73;100763.95;1776089;80;22795;-62
2021/12/30 04:42:03;;;;;;;21.35;12.82;;;;;;;-1.22;58.77;100766.14;1756631;80;21077;-61
2021/12/30 04:44:30;;;;;;;23.77;13.78;;;;;;;-1.24;58.69;100771.80;1765380;80;21035;-62
2021/12/30 04:46:57;;;;;;;30.55;15.75;;;;;;;-1.26;58.78;100774.83;1757883;80;21551;-61
2021/12/30 04:49:25;;;;;;;19.77;13.05;;;;;;;-1.29;58.66;100781.36;1736170;80;21007;-61
2021/12/30 04:51:51;;;;;;;24.60;13.78;;;;;;;-1.29;58.88;100780.06;1760475;80;21076;-62
2021/12/30 04:54:18;;;;;;;22.15;13.20;;;;;;;-1.28;58.86;100787.78;1762233;80;21026;-60
2021/12/30 04:56:45;;;;;;;22.00;13.80;;;;;;;-1.31;58.86;100786.59;1773178;80;20996;-61
2021/12/30 04:59:12;;;;;;;27.15;14.53;;;;;;;-1.29;58.98;100787.39;1747082;80;21022;-60
2021/12/30 05:01:38;;;;;;;26.33;15.13;;;;;;;-1.25;58.93;100794.16;1767143;80;21019;-60
2021/12/30 05:04:06;;;;;;;22.75;13.38;;;;;;;-1.23;58.88;100794.13;1747371;80;21049;-60
2021/12/30 05:06:34;;;;;;;24.10;13.68;;;;;;;-1.19;58.92;100793.19;1733245;80;21071;-60
2021/12/30 05:09:03;;;;;;;22.27;12.78;;;;;;;-1.17;58.74;100800.45;1775766;80;20983;-60
2021/12/30 05:11:30;;;;;;;22.50;12.18;;;;;;;-1.19;58.61;100797.06;1760010;80;21383;-61
2021/12/30 05:13:57;;;;;;;24.75;13.50;;;;;;;-1.23;58.72;100800.58;1774965;79;21086;-60
2021/12/30 05:16:25;;;;;;;25.05;13.40;;;;;;;-1.26;58.78;100809.69;1768323;80;21084;-60
2021/12/30 05:18:56;;;;;;;23.65;13.48;;;;;;;-1.25;58.81;100814.82;1757554;79;21098;-62
2021/12/30 05:21:20;;;;;;;22.80;13.00;;;;;;;-1.25;58.81;100814.82;1732934;80;21077;-62
2021/12/30 05:23:46;;;;;;;27.60;14.53;;;;;;;-1.24;58.91;100810.53;1774102;79;21071;-61
2021/12/30 05:26:15;;;;;;;26.55;14.93;;;;;;;-1.22;59.03;100807.45;1768920;79;20978;-61
2021/12/30 05:28:41;;;;;;;21.62;13.78;;;;;;;-1.19;59.04;100804.81;1766505;79;21882;-62
2021/12/30 05:31:09;;;;;;;19.92;13.60;;;;;;;-1.14;58.65;100806.83;1762815;80;21157;-61
2021/12/30 05:33:35;;;;;;;21.00;14.07;;;;;;;-1.12;58.92;100806.34;1771426;80;21066;-61
2021/12/30 05:36:02;;;;;;;21.90;13.50;;;;;;;-1.07;58.89;100807.08;1754427;80;21113;-61
2021/12/30 05:38:28;;;;;;;24.90;14.10;;;;;;;-0.97;58.99;100817.58;1760106;80;21058;-61
2021/12/30 05:40:54;;;;;;;24.92;14.45;;;;;;;-0.90;58.58;100826.02;1760275;79;21488;-62
2021/12/30 05:43:21;;;;;;;25.60;14.10;;;;;;;-0.90;58.56;100814.39;1766313;78;21074;-61
2021/12/30 05:45:48;;;;;;;22.37;13.75;;;;;;;-0.90;58.56;100814.39;1772955;80;21034;-61
2021/12/30 05:48:14;;;;;;;27.73;14.93;;;;;;;-0.83;58.69;100822.84;1776178;79;21073;-61
2021/12/30 05:50:40;;;;;;;25.57;14.18;;;;;;;-0.83;58.33;100819.80;1747023;80;21096;-61
2021/12/30 05:53:07;;;;;;;24.70;14.05;;;;;;;-0.84;58.11;100827.17;1768628;79;21143;-62
2021/12/30 05:55:34;;;;;;;22.55;13.88;;;;;;;-0.84;58.11;100827.17;1760823;79;22067;-62
2021/12/30 05:58:00;;;;;;;24.25;13.58;;;;;;;-0.84;58.43;100827.59;1772574;80;21045;-62
2021/12/30 06:00:30;;;;;;;24.70;14.43;;;;;;;-0.85;58.49;100830.63;1764858;79;21034;-62
2021/12/30 06:02:57;;;;;;;22.90;14.87;;;;;;;-0.80;58.45;100848.60;1773127;80;21065;-61
2021/12/30 06:05:23;;;;;;;29.02;16.12;;;;;;;-0.80;58.45;100848.60;1768260;78;21124;-61
2021/12/30 06:07:50;;;;;;;25.05;14.78;;;;;;;-0.79;58.40;100846.41;1770424;78;21468;-62
2021/12/30 06:10:16;;;;;;;25.32;14.80;;;;;;;-0.80;58.35;100840.84;1767244;80;21019;-61
2021/12/30 06:12:43;;;;;;;25.37;15.70;;;;;;;-0.80;58.68;100844.27;1749293;80;21796;-61
2021/12/30 06:15:11;;;;;;;25.23;15.30;;;;;;;-0.80;58.49;100840.84;1771487;80;21034;-61
2021/12/30 06:17:39;;;;;;;21.70;13.38;;;;;;;-0.76;58.54;100847.20;1754019;80;21101;-61
2021/12/30 06:20:13;;;;;;;25.48;15.18;;;;;;;-0.70;58.32;100852.64;1764831;79;21577;-61
2021/12/30 06:22:41;;;;;;;26.68;14.63;;;;;;;-0.69;58.34;100858.23;1767048;80;21129;-60
2021/12/30 06:25:09;;;;;;;30.62;16.12;;;;;;;-0.66;58.31;100864.58;1761139;79;21110;-61
2021/12/30 06:27:35;;;;;;;27.67;15.83;;;;;;;-0.67;58.39;100866.78;1765552;80;22096;-61
2021/12/30 06:30:04;;;;;;;26.35;15.28;;;;;;;-0.68;58.57;100868.95;1743103;80;21183;-61
2021/12/30 06:32:31;;;;;;;40.55;17.52;;;;;;;-0.70;58.41;100874.61;1771172;80;21047;-61
2021/12/30 06:34:58;;;;;;;32.40;16.30;;;;;;;-0.71;58.38;100878.06;1769468;79;21049;-61
2021/12/30 06:37:24;;;;;;;29.40;16.60;;;;;;;-0.72;58.43;100875.52;1763921;80;21520;-61
2021/12/30 06:39:52;;;;;;;31.75;17.80;;;;;;;-0.75;58.14;100877.76;1745381;80;21030;-61
2021/12/30 06:42:18;;;;;;;38.05;18.75;;;;;;;-0.75;58.14;100877.76;1747269;80;21301;-61
2021/12/30 06:44:44;;;;;;;31.70;19.48;;;;;;;-0.73;58.64;100888.06;1763419;79;21061;-60
2021/12/30 06:47:11;;;;;;;37.23;19.17;;;;;;;-0.75;58.50;100888.09;1755469;80;21093;-60
2021/12/30 06:49:38;;;;;;;35.68;20.82;;;;;;;-0.74;58.71;100884.60;1746237;79;21093;-61
2021/12/30 06:52:08;;;;;;;36.30;18.80;;;;;;;-0.75;58.93;100883.77;1751947;80;21571;-61
2021/12/30 06:54:36;;;;;;;30.65;16.70;;;;;;;-0.77;58.71;100888.13;1752543;79;21621;-60
2021/12/30 06:57:05;;;;;;;25.85;15.15;;;;;;;-0.77;58.71;100888.13;1754681;80;20984;-62
2021/12/30 06:59:32;;;;;;;29.90;16.48;;;;;;;-0.80;58.72;100889.95;1711745;81;21317;-62
2021/12/30 07:01:58;;;;;;;27.52;14.85;;;;;;;-0.86;58.91;100892.67;1742457;80;21063;-62
2021/12/30 07:04:25;;;;;;;25.43;12.68;;;;;;;-0.90;59.03;100883.31;1756090;80;21539;-62
2021/12/30 07:06:52;;;;;;;30.92;15.18;;;;;;;-0.94;59.20;100885.13;1764750;80;21135;-60
2021/12/30 07:09:22;;;;;;;26.35;16.05;;;;;;;-0.99;59.37;100881.36;1761996;79;21023;-60
2021/12/30 07:11:49;;;;;;;28.95;14.90;;;;;;;-0.94;59.51;100886.42;1745357;80;21059;-60
2021/12/30 07:14:22;;;;;;;28.42;14.87;;;;;;;-0.94;59.51;100886.42;1752080;79;21489;-60
2021/12/30 07:16:48;;;;;;;23.07;12.63;;;;;;;-0.88;59.55;100886.70;1724196;82;21094;-61
2021/12/30 07:19:15;;;;;;;24.10;14.95;;;;;;;-0.90;59.46;100887.19;1745973;79;21066;-61
2021/12/30 07:21:43;;;;;;;29.05;17.02;;;;;;;-0.95;59.44;100876.50;1757688;80;21141;-62
2021/12/30 07:24:09;;;;;;;27.65;15.85;;;;;;;-0.94;59.71;100888.55;1755489;79;21065;-62
2021/12/30 07:26:37;;;;;;;30.75;15.83;;;;;;;-0.94;59.71;100888.55;1762848;80;21129;-61
2021/12/30 07:29:04;;;;;;;28.92;16.00;;;;;;;-0.92;59.75;100884.64;1744796;79;21052;-59
2021/12/30 07:31:30;;;;;;;27.87;16.32;;;;;;;-0.91;59.72;100876.44;1756071;80;23271;-61
2021/12/30 07:33:57;;;;;;;29.95;17.05;;;;;;;-0.90;59.81;100880.73;1758752;80;21292;-61
2021/12/30 07:36:23;;;;;;;31.85;16.93;;;;;;;-0.86;59.85;100883.17;1758698;80;21038;-61
2021/12/30 07:38:49;;;;;;;35.17;18.17;;;;;;;-0.80;59.90;100880.91;1745900;80;21143;-61
2021/12/30 07:41:16;;;;;;;30.48;16.75;;;;;;;-0.80;59.90;100880.91;1755142;79;21094;-61
2021/12/30 07:43:42;;;;;;;26.93;16.62;;;;;;;-0.77;59.92;100887.29;1734249;80;21544;-62
2021/12/30 07:46:09;;;;;;;31.37;17.35;;;;;;;-0.76;59.84;100883.80;1768144;79;21097;-61
2021/12/30 07:48:38;;;;;;;32.35;18.00;;;;;;;-0.80;59.90;100880.91;1762294;79;21371;-60
2021/12/30 07:51:04;;;;;;;27.20;17.32;;;;;;;-0.79;60.05;100882.16;1768236;80;20997;-61
2021/12/30 07:53:30;;;;;;;29.95;18.07;;;;;;;-0.72;60.28;100893.61;1762333;80;20987;-60
2021/12/30 07:55:57;;;;;;;35.17;16.35;;;;;;;-0.72;60.28;100893.61;1744311;80;21031;-63
2021/12/30 07:58:23;;;;;;;30.90;17.70;;;;;;;-0.69;60.09;100891.83;1766613;79;21559;-61
2021/12/30 08:00:50;;;;;;;26.52;16.32;;;;;;;-0.70;60.21;100891.41;1766388;79;21117;-61
2021/12/30 08:03:16;;;;;;;32.93;16.70;;;;;;;-0.73;60.33;100891.48;1741179;80;20986;-63
2021/12/30 08:05:45;;;;;;;30.17;15.98;;;;;;;-0.76;60.41;100897.59;1762119;80;21061;-61
2021/12/30 08:08:11;;;;;;;30.82;16.90;;;;;;;-0.81;60.50;100895.98;1766632;79;22721;-61
2021/12/30 08:10:38;;;;;;;34.95;19.55;;;;;;;-0.86;60.67;100895.25;1769420;80;21078;-60
2021/12/30 08:13:05;;;;;;;28.73;16.40;;;;;;;-0.85;60.87;100902.13;1762952;80;21038;-61
2021/12/30 08:15:31;;;;;;;33.83;17.55;;;;;;;-0.85;61.02;100909.43;1772676;80;21507;-61
2021/12/30 08:17:59;;;;;;;43.08;18.62;;;;;;;-0.84;60.95;100912.44;1769924;80;21030;-60
2021/12/30 08:20:27;;;;;;;35.45;18.48;;;;;;;-0.84;60.97;100924.48;1764370;80;21500;-62
2021/12/30 08:22:54;;;;;;;35.80;17.90;;;;;;;-0.82;61.03;100922.28;1767909;79;21086;-61
2021/12/30 08:25:21;;;;;;;31.05;17.67;;;;;;;-0.78;61.10;100910.12;1764760;79;21579;-61
2021/12/30 08:27:47;;;;;;;31.17;14.90;;;;;;;-0.68;61.03;100907.72;1748149;79;21055;-61
2021/12/30 08:30:18;;;;;;;35.90;16.50;;;;;;;-0.66;60.84;100904.64;1764342;79;21610;-62
2021/12/30 08:32:45;;;;;;;30.90;16.12;;;;;;;-0.65;61.12;100897.31;1766029;80;21115;-60
2021/12/30 08:35:13;;;;;;;31.62;17.45;;;;;;;-0.65;61.12;100897.31;1770185;79;20987;-60
2021/12/30 08:37:40;;;;;;;28.95;17.00;;;;;;;-0.63;60.77;100904.57;1762401;79;21062;-60
2021/12/30 08:40:08;;;;;;;34.03;15.63;;;;;;;-0.62;60.81;100906.28;1766249;80;20988;-60
2021/12/30 08:42:35;;;;;;;35.38;17.15;;;;;;;-0.62;60.81;100906.28;1763359;79;21073;-61
2021/12/30 08:45:03;;;;;;;42.23;18.67;;;;;;;-0.63;60.96;100905.03;1652543;85;21580;-60
2021/12/30 08:47:31;;;;;;;38.30;17.57;;;;;;;-0.62;60.88;100895.11;1658409;84;21080;-61
2021/12/30 08:49:58;;;;;;;31.37;17.50;;;;;;;-0.59;60.86;100883.38;1709681;82;21062;-61
2021/12/30 08:52:26;;;;;;;26.00;15.72;;;;;;;-0.54;60.95;100887.14;1666023;84;21083;-61
2021/12/30 08:54:53;;;;;;;27.48;16.32;;;;;;;-0.52;60.86;100891.81;1656627;84;21543;-60
2021/12/30 08:57:20;;;;;;;35.80;17.82;;;;;;;-0.53;60.65;100897.89;1707615;83;21078;-61
2021/12/30 08:59:46;;;;;;;42.60;19.10;;;;;;;-0.56;60.54;100903.98;1654335;83;20980;-61
2021/12/30 09:02:13;;;;;;;30.43;17.30;;;;;;;-0.58;60.70;100901.87;1678018;83;21087;-62
2021/12/30 09:04:42;;;;;;;35.88;16.77;;;;;;;-0.57;60.67;100902.30;1667122;84;21066;-61
2021/12/30 09:07:09;;;;;;;30.92;16.82;;;;;;;-0.63;60.37;100898.11;1679960;83;21128;-61
2021/12/30 09:09:37;;;;;;;31.87;15.83;;;;;;;-0.63;60.37;100898.11;1674242;84;21076;-61
2021/12/30 09:12:05;;;;;;;25.27;14.43;;;;;;;-0.64;60.64;100901.61;1679535;84;21058;-61
2021/12/30 09:14:33;;;;;;;36.75;16.48;;;;;;;-0.68;60.61;100896.54;1661601;83;21153;-61
2021/12/30 09:17:00;;;;;;;35.08;16.17;;;;;;;-0.66;60.72;100902.06;1679590;83;22295;-61
2021/12/30 09:19:26;;;;;;;29.10;16.07;;;;;;;-0.60;60.88;100909.67;1686764;83;21061;-62
2021/12/30 09:21:52;;;;;;;33.20;16.45;;;;;;;-0.60;60.88;100909.67;1711345;82;22149;-61
2021/12/30 09:24:19;;;;;;;24.98;14.78;;;;;;;-0.63;60.77;100907.16;1709401;83;21070;-62
2021/12/30 09:26:45;;;;;;;33.88;16.27;;;;;;;-0.61;60.83;100911.84;1713313;82;21758;-61
2021/12/30 09:29:12;;;;;;;28.07;14.85;;;;;;;-0.57;60.65;100904.88;1679366;84;21111;-63
2021/12/30 09:31:47;;;;;;;33.58;16.75;;;;;;;-0.57;60.37;100910.05;1681903;84;21011;-61
2021/12/30 09:34:13;;;;;;;27.13;15.40;;;;;;;-0.56;60.63;100906.56;1680822;83;21813;-60
2021/12/30 09:36:40;;;;;;;21.62;14.30;;;;;;;-0.56;60.63;100906.56;1702011;83;21073;-61
2021/12/30 09:39:10;;;;;;;33.10;15.65;;;;;;;-0.58;60.45;100901.42;1676893;83;21627;-61
2021/12/30 09:41:39;;;;;;;26.57;14.33;;;;;;;-0.58;60.26;100898.00;1705304;82;21531;-62
2021/12/30 09:44:07;;;;;;;28.42;14.28;;;;;;;-0.64;60.19;100888.68;1684741;82;21679;-61
2021/12/30 09:46:34;;;;;;;30.72;13.98;;;;;;;-0.61;60.33;100885.99;1717555;82;21227;-60
2021/12/30 09:49:02;;;;;;;25.27;13.83;;;;;;;-0.56;60.27;100889.75;1693663;83;21040;-61
2021/12/30 09:51:28;;;;;;;22.60;12.73;;;;;;;-0.57;60.00;100879.88;1763423;80;21046;-62
2021/12/30 09:53:54;;;;;;;23.52;13.18;;;;;;;-0.59;59.81;100875.19;1766507;79;20996;-62
2021/12/30 09:56:21;;;;;;;29.05;13.93;;;;;;;-0.62;59.79;100879.14;1758834;80;21066;-61
2021/12/30 09:58:49;;;;;;;31.52;13.88;;;;;;;-0.60;59.81;100878.66;1736031;80;21282;-61
2021/12/30 10:01:16;;;;;;;25.00;13.03;;;;;;;-0.58;59.70;100878.62;1765052;80;20979;-61
2021/12/30 10:03:45;;;;;;;22.35;12.45;;;;;;;-0.57;59.69;100871.28;1735195;80;21003;-62
2021/12/30 10:06:14;;;;;;;23.92;12.70;;;;;;;-0.58;59.56;100870.86;1765092;80;21023;-61
2021/12/30 10:08:57;;;;;;;27.15;12.43;;;;;;;-0.61;59.47;100867.90;1764078;79;21027;-60
2021/12/30 10:11:24;;;;;;;23.80;12.45;;;;;;;-0.64;59.47;100869.30;1759850;80;21965;-61
2021/12/30 10:13:57;;;;;;;22.95;12.82;;;;;;;-0.69;59.44;100867.27;1762125;80;21103;-61
2021/12/30 10:16:24;;;;;;;26.15;11.35;;;;;;;-0.75;59.38;100868.71;1761920;80;21073;-61
2021/12/30 10:19:00;;;;;;;18.77;11.08;;;;;;;-0.79;59.59;100876.12;1763900;79;21051;-61
2021/12/30 10:21:37;;;;;;;20.82;11.85;;;;;;;-0.82;59.58;100876.22;1731702;80;21070;-61
2021/12/30 10:24:06;;;;;;;;;;;;;;;-0.90;59.56;100875.11;1764697;79;21145;-61
2021/12/30 10:26:57;;;;;;;21.05;11.22;;;;;;;-1.01;60.24;100870.64;1760701;80;20163;-62
2021/12/30 10:29:27;;;;;;;20.68;11.97;;;;;;;-1.01;60.24;100870.64;1767512;79;21523;-62
2021/12/30 10:31:54;;;;;;;15.75;9.88;;;;;;;-1.00;60.29;100874.93;1763707;80;21078;-62
2021/12/30 10:34:22;;;;;;;22.60;10.05;;;;;;;-0.97;60.03;100861.49;1759602;80;21054;-63
2021/12/30 10:36:50;;;;;;;14.68;8.03;;;;;;;-0.94;60.21;100858.00;1739154;80;21841;-62
2021/12/30 10:39:23;;;;;;;12.70;7.90;;;;;;;-0.94;60.21;100858.00;1736775;80;21045;-64
2021/12/30 10:42:10;;;;;;;15.45;9.23;;;;;;;-0.92;59.88;100849.76;1763128;80;21059;-61
2021/12/30 10:45:04;;;;;;;15.75;10.08;;;;;;;-0.89;59.91;100848.81;1733557;80;21016;-61
2021/12/30 10:47:33;;;;;;;15.35;9.03;;;;;;;-0.86;59.83;100843.58;1764062;79;21026;-60
2021/12/30 10:50:03;;;;;;;17.37;8.33;;;;;;;-0.85;59.85;100844.83;1742120;80;22247;-62
2021/12/30 10:52:30;;;;;;;13.40;7.87;;;;;;;-0.84;59.91;100839.21;1767497;80;21022;-61
2021/12/30 10:54:59;;;;;;;17.70;8.28;;;;;;;-0.81;59.80;100841.72;1764918;79;21162;-62
2021/12/30 10:57:29;;;;;;;14.15;7.72;;;;;;;-0.74;59.69;100831.62;1737812;80;21535;-61
2021/12/30 10:59:56;;;;;;;13.90;8.00;;;;;;;-0.74;59.69;100831.62;1762252;79;21526;-61
2021/12/30 11:02:26;;;;;;;19.40;8.33;;;;;;;-0.71;59.46;100835.88;1758833;80;21131;-61
2021/12/30 11:04:57;;;;;;;13.83;7.53;;;;;;;-0.73;59.44;100834.63;1767764;79;21038;-61
2021/12/30 11:07:30;;;;;;;18.00;7.87;;;;;;;-0.79;59.45;100820.56;1759972;80;21093;-61
2021/12/30 11:09:59;;;;;;;16.05;7.95;;;;;;;-0.80;59.64;100824.89;1723458;80;21591;-61
2021/12/30 11:12:33;;;;;;;15.60;8.45;;;;;;;-0.77;59.54;100818.36;1760870;79;21066;-61
2021/12/30 11:15:06;;;;;;;14.23;8.50;;;;;;;-0.75;59.61;100823.48;1734952;80;21020;-61